Norasia Valparaiso — A8CJ9 — position and weather

sailwx.info

Track history (hours):
 
Tides and Currents Weather Stations Pressure Air Temp Water Temp Dewpoint Dewpoint Depression Visibility Wind Speed Wind Dir Waves Ship Positions

Norasia Valparaiso

Last reported at 2015-Apr-28 22:33 UTC. Time now 2015-May-05 03:11 UTC.
Position N 22°07' E 113°48'.

Length 286.3 m; beam 32.2 m; draft 13.2 m.

Type: Ship (hazmat cat A). MMSI: 636090659.

Date/timePositionNaut miles runAvg speedWind from/ knotsBaromVisibWave heightAir tempDewpointWater temp
2015-Apr-28 22:33N 22°07' E 113°48'1111.2
2015-Apr-28 21:33N 22°18' E 113°48'5 0.3
2015-Apr-28 05:29N 22°23' E 113°46'1212.7
2015-Apr-28 04:33N 22°12' E 113°50'  
2015-Apr-22 16:33N 01°16' E 104°13'1614.5
2015-Apr-22 15:29N 01°14' E 103°58'1010.2
2015-Apr-22 14:33N 01°13' E 103°48'4 1.0
2015-Apr-22 10:19N 01°16' E 103°46'0 0.0
2015-Apr-22 09:31N 01°16' E 103°46'0 0.0
2015-Apr-22 08:28N 01°16' E 103°46'0 0.0
2015-Apr-22 07:13N 01°16' E 103°46'0 0.0
2015-Apr-22 06:16N 01°16' E 103°46'0 0.0
2015-Apr-22 05:31N 01°16' E 103°46'0 0.0
2015-Apr-22 04:31N 01°16' E 103°46'0 0.0
2015-Apr-22 02:28N 01°16' E 103°46'0 0.0
2015-Apr-22 00:16N 01°16' E 103°46'0 0.0
2015-Apr-21 20:31N 01°16' E 103°46'0 0.0
2015-Apr-21 19:25N 01°16' E 103°46'0 0.0
2015-Apr-21 18:19N 01°16' E 103°46'0 0.0
2015-Apr-21 17:31N 01°16' E 103°46'0 0.0
2015-Apr-21 16:31N 01°16' E 103°46'0 0.0
2015-Apr-21 15:31N 01°16' E 103°46'0 0.0
2015-Apr-21 14:31N 01°16' E 103°46'0 0.0
2015-Apr-21 13:28N 01°16' E 103°46'0 0.0
2015-Apr-21 12:31N 01°16' E 103°46'0 0.0
2015-Apr-21 11:07N 01°16' E 103°46'0 0.0
2015-Apr-21 10:28N 01°16' E 103°46'0 0.0
2015-Apr-21 09:25N 01°16' E 103°46'0 0.0
2015-Apr-21 08:31N 01°16' E 103°46'0 0.0
2015-Apr-21 07:31N 01°16' E 103°46'0 0.0
2015-Apr-21 06:31N 01°16' E 103°46'0 0.0
2015-Apr-21 03:33N 01°16' E 103°46'0 0.3
2015-Apr-21 02:33N 01°16' E 103°47'7 6.9
2015-Apr-21 01:31N 01°14' E 103°53'0 0.4
2015-Apr-21 00:28N 01°14' E 103°53'0 0.0
2015-Apr-20 21:16N 01°14' E 103°53'0 0.1
2015-Apr-20 17:28N 01°14' E 103°53'0 0.1
2015-Apr-20 16:34N 01°14' E 103°53'0 0.0
2015-Apr-20 15:34N 01°14' E 103°53'0 0.0
2015-Apr-20 14:34N 01°14' E 103°53'0 0.0
2015-Apr-20 13:22N 01°14' E 103°53'0 0.0
2015-Apr-20 12:34N 01°14' E 103°53'0 0.0
2015-Apr-20 11:34N 01°14' E 103°53'1 0.6
2015-Apr-20 10:33N 01°14' E 103°53'73 9.7
2015-Apr-20 03:04N 01°40' E 102°45'712.5
2015-Apr-20 02:30N 01°42' E 102°39'1212.9
2015-Apr-20 01:33N 01°48' E 102°28'  
Track history (hours):
 
Tides and Currents Weather Stations Pressure Air Temp Water Temp Dewpoint Dewpoint Depression Visibility Wind Speed Wind Dir Waves Ship Positions

Norasia Valparaiso

Last reported at 2015-Apr-28 22:33 UTC. Time now 2015-May-05 03:11 UTC.
Position N 22°07' E 113°48'.

Length 286.3 m; beam 32.2 m; draft 13.2 m.

Type: Ship (hazmat cat A). MMSI: 636090659.

Date/timePositionNaut miles runAvg speedWind from/ knotsBaromVisibWave heightAir tempDewpointWater temp
2015-Apr-28 22:33N 22°07' E 113°48'1111.2
2015-Apr-28 21:33N 22°18' E 113°48'5 0.3
2015-Apr-28 05:29N 22°23' E 113°46'1212.7
2015-Apr-28 04:33N 22°12' E 113°50'  
2015-Apr-22 16:33N 01°16' E 104°13'1614.5
2015-Apr-22 15:29N 01°14' E 103°58'1010.2
2015-Apr-22 14:33N 01°13' E 103°48'4 1.0
2015-Apr-22 10:19N 01°16' E 103°46'0 0.0
2015-Apr-22 09:31N 01°16' E 103°46'0 0.0
2015-Apr-22 08:28N 01°16' E 103°46'0 0.0
2015-Apr-22 07:13N 01°16' E 103°46'0 0.0
2015-Apr-22 06:16N 01°16' E 103°46'0 0.0
2015-Apr-22 05:31N 01°16' E 103°46'0 0.0
2015-Apr-22 04:31N 01°16' E 103°46'0 0.0
2015-Apr-22 02:28N 01°16' E 103°46'0 0.0
2015-Apr-22 00:16N 01°16' E 103°46'0 0.0
2015-Apr-21 20:31N 01°16' E 103°46'0 0.0
2015-Apr-21 19:25N 01°16' E 103°46'0 0.0
2015-Apr-21 18:19N 01°16' E 103°46'0 0.0
2015-Apr-21 17:31N 01°16' E 103°46'0 0.0
2015-Apr-21 16:31N 01°16' E 103°46'0 0.0
2015-Apr-21 15:31N 01°16' E 103°46'0 0.0
2015-Apr-21 14:31N 01°16' E 103°46'0 0.0
2015-Apr-21 13:28N 01°16' E 103°46'0 0.0
2015-Apr-21 12:31N 01°16' E 103°46'0 0.0
2015-Apr-21 11:07N 01°16' E 103°46'0 0.0
2015-Apr-21 10:28N 01°16' E 103°46'0 0.0
2015-Apr-21 09:25N 01°16' E 103°46'0 0.0
2015-Apr-21 08:31N 01°16' E 103°46'0 0.0
2015-Apr-21 07:31N 01°16' E 103°46'0 0.0
2015-Apr-21 06:31N 01°16' E 103°46'0 0.0
2015-Apr-21 03:33N 01°16' E 103°46'0 0.3
2015-Apr-21 02:33N 01°16' E 103°47'7 6.9
2015-Apr-21 01:31N 01°14' E 103°53'0 0.4
2015-Apr-21 00:28N 01°14' E 103°53'0 0.0
2015-Apr-20 21:16N 01°14' E 103°53'0 0.1
2015-Apr-20 17:28N 01°14' E 103°53'0 0.1
2015-Apr-20 16:34N 01°14' E 103°53'0 0.0
2015-Apr-20 15:34N 01°14' E 103°53'0 0.0
2015-Apr-20 14:34N 01°14' E 103°53'0 0.0
2015-Apr-20 13:22N 01°14' E 103°53'0 0.0
2015-Apr-20 12:34N 01°14' E 103°53'0 0.0
2015-Apr-20 11:34N 01°14' E 103°53'1 0.6
2015-Apr-20 10:33N 01°14' E 103°53'73 9.7
2015-Apr-20 03:04N 01°40' E 102°45'712.5
2015-Apr-20 02:30N 01°42' E 102°39'1212.9
2015-Apr-20 01:33N 01°48' E 102°28'  

Dump ship's entire track history